createdAt,value
2023-03-31T00:02:25.008Z,13.30
2023-03-31T00:07:27.924Z,14.60
2023-03-31T00:12:31.113Z,12.60
2023-03-31T00:17:33.930Z,12.60
2023-03-31T00:22:38.712Z,11.90
2023-03-31T00:27:45.619Z,12.70
2023-03-31T00:32:48.424Z,11.40
2023-03-31T00:37:51.182Z,9.60
2023-03-31T00:42:54.257Z,8.60
2023-03-31T00:48:10.466Z,8.50
2023-03-31T00:53:18.005Z,8.30
2023-03-31T00:58:28.447Z,7.90
2023-03-31T01:03:33.581Z,6.90
2023-03-31T01:08:38.729Z,6.70
2023-03-31T01:13:42.720Z,7.20
2023-03-31T01:18:49.725Z,6.70
2023-03-31T01:24:10.610Z,6.10
2023-03-31T01:29:47.160Z,5.80
2023-03-31T01:34:49.911Z,5.70
2023-03-31T01:40:10.523Z,5.00
2023-03-31T01:45:23.608Z,4.90
2023-03-31T01:51:02.362Z,4.80
2023-03-31T01:56:16.321Z,4.90
2023-03-31T02:01:31.152Z,5.70
2023-03-31T02:06:40.290Z,5.10
2023-03-31T02:11:45.634Z,5.10
2023-03-31T02:16:53.948Z,5.70
2023-03-31T02:21:57.719Z,6.00
2023-03-31T02:27:25.021Z,8.30
2023-03-31T02:32:44.855Z,9.20
2023-03-31T02:37:49.906Z,7.90
2023-03-31T02:42:52.803Z,6.70
2023-03-31T02:47:55.762Z,8.00
2023-03-31T02:53:38.589Z,11.60
2023-03-31T02:58:41.312Z,11.50
2023-03-31T03:03:44.047Z,7.50
2023-03-31T03:09:07.733Z,8.50
2023-03-31T03:14:34.368Z,8.60
2023-03-31T03:19:37.269Z,8.30
2023-03-31T03:24:40.089Z,9.80
2023-03-31T03:29:43.265Z,9.70
2023-03-31T03:34:46.100Z,10.10
2023-03-31T03:39:48.898Z,11.50
2023-03-31T03:44:51.641Z,12.60
2023-03-31T03:49:54.456Z,10.30
2023-03-31T03:54:57.270Z,10.00
2023-03-31T04:00:00.137Z,12.40
2023-03-31T04:05:03.068Z,11.80
2023-03-31T04:10:06.501Z,10.80
2023-03-31T04:15:09.598Z,11.50
2023-03-31T04:20:13.523Z,9.80
2023-03-31T04:25:16.979Z,10.80
2023-03-31T04:30:24.280Z,12.50
2023-03-31T04:35:48.704Z,8.10
2023-03-31T04:40:53.144Z,12.40
2023-03-31T04:45:56.258Z,11.20
2023-03-31T04:50:59.116Z,12.20
2023-03-31T04:56:02.104Z,12.20
2023-03-31T05:01:08.191Z,10.40
2023-03-31T05:06:11.286Z,9.90
2023-03-31T05:11:14.189Z,9.50
2023-03-31T05:16:17.550Z,9.20
2023-03-31T05:21:21.639Z,10.60
2023-03-31T05:26:25.490Z,10.10
2023-03-31T05:31:28.726Z,10.60
2023-03-31T05:36:32.330Z,10.50
2023-03-31T05:41:35.299Z,11.40
2023-03-31T05:46:39.438Z,10.40
2023-03-31T05:51:42.286Z,11.60
2023-03-31T05:56:45.428Z,9.60
2023-03-31T06:01:48.316Z,11.30
2023-03-31T06:06:51.229Z,11.90
2023-03-31T06:11:54.095Z,15.20
2023-03-31T06:16:58.093Z,11.60
2023-03-31T06:22:01.701Z,11.10
2023-03-31T06:27:06.947Z,11.30
2023-03-31T06:32:10.842Z,13.00
2023-03-31T06:37:14.005Z,12.10
2023-03-31T06:42:16.965Z,10.60
2023-03-31T06:47:19.844Z,11.90
2023-03-31T06:52:22.742Z,11.00
2023-03-31T06:57:25.711Z,11.20
2023-03-31T07:02:28.670Z,13.20
2023-03-31T07:07:32.771Z,13.90
2023-03-31T07:12:35.984Z,12.20
2023-03-31T07:17:42.243Z,13.60
2023-03-31T07:22:47.192Z,12.60
2023-03-31T07:27:49.952Z,14.90
2023-03-31T07:32:54.743Z,10.60
2023-03-31T07:37:57.753Z,10.80
2023-03-31T07:43:00.729Z,10.20
2023-03-31T07:48:03.607Z,9.20
2023-03-31T07:53:06.712Z,9.80
2023-03-31T07:58:12.252Z,11.30
2023-03-31T08:03:16.017Z,9.60
2023-03-31T08:08:21.204Z,9.70
2023-03-31T08:13:30.256Z,10.10
2023-03-31T08:18:33.097Z,9.10
2023-03-31T08:23:36.824Z,10.20
2023-03-31T08:28:40.004Z,6.60
2023-03-31T08:33:43.251Z,6.70
2023-03-31T08:38:46.324Z,7.50
2023-03-31T08:43:50.570Z,6.60
2023-03-31T08:49:00.263Z,6.70
2023-03-31T08:54:08.131Z,6.70
2023-03-31T09:00:10.514Z,6.50
2023-03-31T09:05:46.003Z,6.70
2023-03-31T09:11:04.859Z,9.20
2023-03-31T09:16:31.272Z,7.80
2023-03-31T09:21:47.063Z,8.10
2023-03-31T09:26:57.012Z,7.20
2023-03-31T09:32:18.650Z,7.40
2023-03-31T09:37:21.773Z,7.80
2023-03-31T09:42:24.606Z,8.20
2023-03-31T09:47:33.997Z,8.40
2023-03-31T09:52:43.488Z,8.20
2023-03-31T09:57:46.599Z,8.50
2023-03-31T10:02:57.499Z,8.30
2023-03-31T10:08:57.821Z,8.40
2023-03-31T10:14:15.382Z,8.60
2023-03-31T10:19:35.217Z,8.60
2023-03-31T10:24:42.056Z,8.90
2023-03-31T10:29:45.017Z,6.80
2023-03-31T10:34:48.003Z,10.20
2023-03-31T10:40:04.622Z,12.20
2023-03-31T10:45:36.578Z,11.50
2023-03-31T10:50:43.056Z,8.00
2023-03-31T10:56:30.089Z,9.90
2023-03-31T11:01:39.204Z,10.50
2023-03-31T11:07:03.781Z,9.70
2023-03-31T11:12:49.857Z,7.90
2023-03-31T11:23:33.768Z,8.90
2023-03-31T11:28:43.087Z,10.00
2023-03-31T11:34:04.741Z,9.70
2023-03-31T11:39:33.421Z,9.10
2023-03-31T11:44:53.355Z,10.80
2023-03-31T11:50:03.310Z,9.90
2023-03-31T11:55:15.622Z,9.60
2023-03-31T12:00:25.434Z,9.20
2023-03-31T12:05:31.976Z,10.10
2023-03-31T12:10:43.682Z,10.80
2023-03-31T12:16:01.552Z,9.70
2023-03-31T12:21:06.808Z,11.10
2023-03-31T12:26:40.196Z,11.00
2023-03-31T12:31:45.772Z,11.00
2023-03-31T12:37:07.035Z,9.50
2023-03-31T12:42:37.942Z,9.70
2023-03-31T12:48:02.424Z,8.50
2023-03-31T12:53:18.906Z,10.80
2023-03-31T12:58:24.891Z,11.00
2023-03-31T13:03:55.487Z,9.60
2023-03-31T13:09:08.682Z,8.30
2023-03-31T13:14:20.339Z,9.60
2023-03-31T13:19:32.968Z,8.40
2023-03-31T13:24:36.257Z,7.40
2023-03-31T13:29:42.840Z,7.40
2023-03-31T13:34:57.928Z,8.10
2023-03-31T13:40:22.385Z,7.00
2023-03-31T13:45:34.024Z,7.40
2023-03-31T13:50:58.490Z,6.70
2023-03-31T13:56:27.115Z,7.30
2023-03-31T14:01:41.960Z,6.90
2023-03-31T14:06:56.878Z,6.50
2023-03-31T14:12:00.585Z,6.00
2023-03-31T14:17:04.085Z,7.60
2023-03-31T14:22:07.047Z,6.00
2023-03-31T14:27:39.245Z,6.30
2023-03-31T14:33:05.794Z,6.70
2023-03-31T14:38:19.590Z,6.30
2023-03-31T14:43:29.083Z,7.00
2023-03-31T14:48:45.396Z,8.90
2023-03-31T14:53:48.231Z,9.90
2023-03-31T14:58:53.740Z,9.90
2023-03-31T15:03:56.904Z,9.90
2023-03-31T15:09:03.009Z,8.80
2023-03-31T15:14:10.054Z,9.30
2023-03-31T15:19:19.396Z,8.80
2023-03-31T15:24:24.041Z,7.10
2023-03-31T15:29:42.632Z,6.40
2023-03-31T15:34:46.601Z,6.90
2023-03-31T15:39:52.213Z,5.90
2023-03-31T15:45:09.280Z,6.70
2023-03-31T15:50:16.330Z,6.40
2023-03-31T15:55:29.174Z,5.30
2023-03-31T16:00:41.316Z,4.70
2023-03-31T16:05:56.379Z,5.80
2023-03-31T16:11:05.031Z,6.10
2023-03-31T16:16:15.931Z,8.90
2023-03-31T16:21:24.181Z,7.40
2023-03-31T16:26:29.175Z,8.60
2023-03-31T16:31:35.092Z,11.00
2023-03-31T16:36:38.270Z,13.10
2023-03-31T16:41:41.193Z,10.30
2023-03-31T16:46:44.230Z,11.00
2023-03-31T16:51:47.005Z,9.90
2023-03-31T16:56:49.940Z,7.40
2023-03-31T17:01:52.903Z,6.90
2023-03-31T17:06:56.183Z,18.20
2023-03-31T17:11:58.994Z,11.20
2023-03-31T17:17:04.494Z,8.80
2023-03-31T17:22:07.598Z,9.00
2023-03-31T17:27:10.725Z,12.30
2023-03-31T17:32:15.003Z,11.80
2023-03-31T17:37:19.252Z,21.50
2023-03-31T17:42:22.576Z,21.70
2023-03-31T17:47:26.263Z,14.60
2023-03-31T17:52:30.016Z,12.70
2023-03-31T17:57:33.380Z,20.80
2023-03-31T18:02:37.830Z,9.70
2023-03-31T18:07:41.550Z,9.60
2023-03-31T18:12:44.656Z,9.00
2023-03-31T18:17:47.811Z,6.60
2023-03-31T18:22:51.352Z,7.10
2023-03-31T18:27:54.351Z,7.90
2023-03-31T18:32:57.426Z,13.20
2023-03-31T18:38:00.394Z,37.30
2023-03-31T18:43:03.651Z,29.80
2023-03-31T18:48:06.645Z,36.40
2023-03-31T18:53:10.036Z,37.50
2023-03-31T18:58:13.356Z,28.40
2023-03-31T19:03:16.250Z,24.90
2023-03-31T19:08:20.541Z,21.80
2023-03-31T19:13:23.343Z,13.70
2023-03-31T19:18:28.106Z,14.70
2023-03-31T19:23:32.580Z,10.50
2023-03-31T19:28:35.615Z,9.60
2023-03-31T19:33:38.445Z,11.20
2023-03-31T19:38:44.002Z,12.40
2023-03-31T19:43:48.000Z,11.50
2023-03-31T19:48:51.479Z,11.30
2023-03-31T19:53:55.008Z,10.30
2023-03-31T19:58:59.323Z,14.20
2023-03-31T20:04:02.247Z,12.30
2023-03-31T20:09:06.452Z,11.40
2023-03-31T20:14:10.755Z,12.20
2023-03-31T20:19:14.737Z,12.30
2023-03-31T20:24:19.021Z,9.80
2023-03-31T20:29:22.208Z,10.80
2023-03-31T20:34:25.026Z,9.90
2023-03-31T20:39:28.161Z,11.60
2023-03-31T20:44:31.047Z,8.30
2023-03-31T20:49:33.983Z,11.50
2023-03-31T20:54:37.476Z,11.90
2023-03-31T20:59:42.871Z,12.90
2023-03-31T21:04:48.500Z,13.20
2023-03-31T21:09:53.312Z,11.90
2023-03-31T21:14:56.189Z,12.30
2023-03-31T21:19:58.969Z,13.40
2023-03-31T21:25:01.890Z,13.30
2023-03-31T21:30:05.814Z,15.60
2023-03-31T21:35:09.030Z,18.20
2023-03-31T21:40:14.400Z,15.50
2023-03-31T21:45:17.990Z,14.10
2023-03-31T21:50:20.904Z,14.90
2023-03-31T21:55:24.160Z,18.40
2023-03-31T22:00:28.117Z,17.70
2023-03-31T22:05:35.067Z,11.40
2023-03-31T22:10:38.634Z,11.60
2023-03-31T22:15:44.296Z,12.90
2023-03-31T22:20:47.178Z,10.30
2023-03-31T22:25:49.942Z,9.40
2023-03-31T22:30:52.809Z,9.10
2023-03-31T22:35:55.575Z,9.20
2023-03-31T22:40:58.522Z,8.60
2023-03-31T22:46:06.688Z,9.40
2023-03-31T22:51:12.001Z,8.50
2023-03-31T22:56:14.922Z,10.60
2023-03-31T23:01:20.872Z,16.80
2023-03-31T23:06:23.910Z,9.60
2023-03-31T23:11:27.468Z,10.20
2023-03-31T23:16:30.852Z,9.80
2023-03-31T23:21:34.655Z,9.70
2023-03-31T23:26:37.456Z,17.20
2023-03-31T23:31:40.507Z,16.00
2023-03-31T23:36:43.677Z,10.90
2023-03-31T23:41:46.602Z,9.60
2023-03-31T23:46:50.846Z,14.60
2023-03-31T23:51:53.675Z,11.20
2023-03-31T23:56:56.547Z,11.00
